LFRN

Rennes/Saint-Jacques Airport

Airport
ICAO code
LFRN
IATA Code
RNS
Summary
ICAO Region
EUR
ICAO Territory
Location

Saint-Jacques,

Serving
Rennes
Elevation
124 ft
Coordinates
48° 4' 16" N , 1° 43' 47" W
KCC
Metar
LFRN 040700Z AUTO 13004KT CAVOK 03/01 Q1010 NOSIG

Runways

Designator Length Width Surface Rops
14/32 850 30 ASP Yes/Yes
10/28 2100 45 ASP Yes/Yes

Airport map

Aerial View

SKYbrary Partners:

Safety knowledge contributed by: